sensor_id;sensor_type;location;lat;lon;timestamp;temperature;humidity
30999;DHT22;20549;50.042;8.968;2023-02-28T00:01:31;2.60;58.40
30999;DHT22;20549;50.042;8.968;2023-02-28T00:03:57;2.60;58.40
30999;DHT22;20549;50.042;8.968;2023-02-28T00:06:24;2.50;58.30
30999;DHT22;20549;50.042;8.968;2023-02-28T00:08:51;2.50;58.30
30999;DHT22;20549;50.042;8.968;2023-02-28T00:11:17;2.50;58.30
30999;DHT22;20549;50.042;8.968;2023-02-28T00:13:44;2.50;58.30
30999;DHT22;20549;50.042;8.968;2023-02-28T00:16:11;2.50;58.30
30999;DHT22;20549;50.042;8.968;2023-02-28T00:18:37;2.40;58.30
30999;DHT22;20549;50.042;8.968;2023-02-28T00:21:04;2.40;58.40
30999;DHT22;20549;50.042;8.968;2023-02-28T00:23:30;2.40;58.30
30999;DHT22;20549;50.042;8.968;2023-02-28T00:25:57;2.30;58.40
30999;DHT22;20549;50.042;8.968;2023-02-28T00:28:23;2.30;58.50
30999;DHT22;20549;50.042;8.968;2023-02-28T00:30:50;2.30;58.60
30999;DHT22;20549;50.042;8.968;2023-02-28T00:33:16;2.30;59.10
30999;DHT22;20549;50.042;8.968;2023-02-28T00:35:43;2.20;58.70
30999;DHT22;20549;50.042;8.968;2023-02-28T00:38:10;2.20;58.80
30999;DHT22;20549;50.042;8.968;2023-02-28T00:40:36;2.20;58.80
30999;DHT22;20549;50.042;8.968;2023-02-28T00:43:03;2.20;58.90
30999;DHT22;20549;50.042;8.968;2023-02-28T00:45:29;2.20;59.00
30999;DHT22;20549;50.042;8.968;2023-02-28T00:47:56;2.10;59.00
30999;DHT22;20549;50.042;8.968;2023-02-28T00:50:22;2.10;59.00
30999;DHT22;20549;50.042;8.968;2023-02-28T00:52:49;2.10;59.10
30999;DHT22;20549;50.042;8.968;2023-02-28T00:55:16;2.10;59.20
30999;DHT22;20549;50.042;8.968;2023-02-28T00:57:42;2.00;59.10
30999;DHT22;20549;50.042;8.968;2023-02-28T01:00:09;2.00;59.30
30999;DHT22;20549;50.042;8.968;2023-02-28T01:02:35;2.00;59.30
30999;DHT22;20549;50.042;8.968;2023-02-28T01:05:02;2.00;59.40
30999;DHT22;20549;50.042;8.968;2023-02-28T01:07:29;1.90;59.40
30999;DHT22;20549;50.042;8.968;2023-02-28T01:09:55;1.90;59.50
30999;DHT22;20549;50.042;8.968;2023-02-28T01:12:22;1.90;59.50
30999;DHT22;20549;50.042;8.968;2023-02-28T01:14:48;1.80;59.60
30999;DHT22;20549;50.042;8.968;2023-02-28T01:17:15;1.80;59.60
30999;DHT22;20549;50.042;8.968;2023-02-28T01:19:42;1.80;59.60
30999;DHT22;20549;50.042;8.968;2023-02-28T01:22:08;1.80;59.90
30999;DHT22;20549;50.042;8.968;2023-02-28T01:24:35;1.70;59.80
30999;DHT22;20549;50.042;8.968;2023-02-28T01:27:01;1.70;59.90
30999;DHT22;20549;50.042;8.968;2023-02-28T01:29:28;1.70;60.00
30999;DHT22;20549;50.042;8.968;2023-02-28T01:31:54;1.70;60.10
30999;DHT22;20549;50.042;8.968;2023-02-28T01:34:21;1.70;60.30
30999;DHT22;20549;50.042;8.968;2023-02-28T01:36:48;1.60;60.30
30999;DHT22;20549;50.042;8.968;2023-02-28T01:39:14;1.60;60.40
30999;DHT22;20549;50.042;8.968;2023-02-28T01:41:41;1.50;60.60
30999;DHT22;20549;50.042;8.968;2023-02-28T01:46:34;1.50;60.90
30999;DHT22;20549;50.042;8.968;2023-02-28T01:49:13;1.50;60.50
30999;DHT22;20549;50.042;8.968;2023-02-28T01:54:07;1.40;60.60
30999;DHT22;20549;50.042;8.968;2023-02-28T01:56:33;1.40;60.70
30999;DHT22;20549;50.042;8.968;2023-02-28T01:58:59;1.40;60.90
30999;DHT22;20549;50.042;8.968;2023-02-28T02:01:25;1.40;61.10
30999;DHT22;20549;50.042;8.968;2023-02-28T02:03:55;1.40;61.30
30999;DHT22;20549;50.042;8.968;2023-02-28T02:06:18;1.40;61.10
30999;DHT22;20549;50.042;8.968;2023-02-28T02:08:45;1.40;61.20
30999;DHT22;20549;50.042;8.968;2023-02-28T02:11:12;1.40;61.30
30999;DHT22;20549;50.042;8.968;2023-02-28T02:19:02;1.30;61.50
30999;DHT22;20549;50.042;8.968;2023-02-28T02:21:40;1.30;61.40
30999;DHT22;20549;50.042;8.968;2023-02-28T02:42:27;1.10;61.80
30999;DHT22;20549;50.042;8.968;2023-02-28T02:45:01;1.10;61.90
30999;DHT22;20549;50.042;8.968;2023-02-28T02:47:27;1.10;62.10
30999;DHT22;20549;50.042;8.968;2023-02-28T02:49:53;1.10;62.10
30999;DHT22;20549;50.042;8.968;2023-02-28T02:52:20;1.10;62.00
30999;DHT22;20549;50.042;8.968;2023-02-28T02:54:46;1.10;62.30
30999;DHT22;20549;50.042;8.968;2023-02-28T02:57:14;1.10;62.30
30999;DHT22;20549;50.042;8.968;2023-02-28T02:59:40;1.10;62.10
30999;DHT22;20549;50.042;8.968;2023-02-28T03:02:06;1.10;62.10
30999;DHT22;20549;50.042;8.968;2023-02-28T03:04:34;1.10;62.30
30999;DHT22;20549;50.042;8.968;2023-02-28T03:06:59;1.10;62.50
30999;DHT22;20549;50.042;8.968;2023-02-28T03:09:26;1.20;62.50
30999;DHT22;20549;50.042;8.968;2023-02-28T03:11:53;1.20;62.50
30999;DHT22;20549;50.042;8.968;2023-02-28T03:14:22;1.20;62.50
30999;DHT22;20549;50.042;8.968;2023-02-28T03:16:49;1.20;62.50
30999;DHT22;20549;50.042;8.968;2023-02-28T03:19:39;1.20;62.70
30999;DHT22;20549;50.042;8.968;2023-02-28T03:22:38;1.20;62.80
30999;DHT22;20549;50.042;8.968;2023-02-28T03:25:12;1.20;62.60
30999;DHT22;20549;50.042;8.968;2023-02-28T03:27:49;1.20;62.50
30999;DHT22;20549;50.042;8.968;2023-02-28T03:30:14;1.20;62.50
30999;DHT22;20549;50.042;8.968;2023-02-28T03:32:42;1.20;62.60
30999;DHT22;20549;50.042;8.968;2023-02-28T03:35:51;1.20;62.70
30999;DHT22;20549;50.042;8.968;2023-02-28T03:37:30;1.20;62.90
30999;DHT22;20549;50.042;8.968;2023-02-28T03:39:58;1.20;62.90
30999;DHT22;20549;50.042;8.968;2023-02-28T03:42:30;1.20;63.20
30999;DHT22;20549;50.042;8.968;2023-02-28T03:45:05;1.30;63.20
30999;DHT22;20549;50.042;8.968;2023-02-28T03:47:48;1.30;63.50
30999;DHT22;20549;50.042;8.968;2023-02-28T03:50:14;1.30;63.50
30999;DHT22;20549;50.042;8.968;2023-02-28T03:52:42;1.30;63.50
30999;DHT22;20549;50.042;8.968;2023-02-28T03:55:07;1.30;63.20
30999;DHT22;20549;50.042;8.968;2023-02-28T03:57:56;1.30;63.10
30999;DHT22;20549;50.042;8.968;2023-02-28T04:00:21;1.30;63.20
30999;DHT22;20549;50.042;8.968;2023-02-28T04:02:46;1.20;63.20
30999;DHT22;20549;50.042;8.968;2023-02-28T04:05:13;1.20;63.50
30999;DHT22;20549;50.042;8.968;2023-02-28T04:07:40;1.30;63.70
30999;DHT22;20549;50.042;8.968;2023-02-28T04:10:06;1.30;63.60
30999;DHT22;20549;50.042;8.968;2023-02-28T04:12:33;1.30;63.80
30999;DHT22;20549;50.042;8.968;2023-02-28T04:14:59;1.30;63.50
30999;DHT22;20549;50.042;8.968;2023-02-28T04:17:26;1.30;63.40
30999;DHT22;20549;50.042;8.968;2023-02-28T04:19:53;1.30;63.50
30999;DHT22;20549;50.042;8.968;2023-02-28T04:22:19;1.30;63.50
30999;DHT22;20549;50.042;8.968;2023-02-28T04:24:46;1.30;63.50
30999;DHT22;20549;50.042;8.968;2023-02-28T04:27:12;1.30;63.60
30999;DHT22;20549;50.042;8.968;2023-02-28T04:29:39;1.30;63.50
30999;DHT22;20549;50.042;8.968;2023-02-28T04:32:05;1.30;63.70
30999;DHT22;20549;50.042;8.968;2023-02-28T04:34:32;1.30;63.80
30999;DHT22;20549;50.042;8.968;2023-02-28T04:36:59;1.30;63.70
30999;DHT22;20549;50.042;8.968;2023-02-28T04:39:25;1.30;63.80
30999;DHT22;20549;50.042;8.968;2023-02-28T04:41:52;1.20;63.70
30999;DHT22;20549;50.042;8.968;2023-02-28T04:44:18;1.20;63.70
30999;DHT22;20549;50.042;8.968;2023-02-28T04:46:47;1.20;63.70
30999;DHT22;20549;50.042;8.968;2023-02-28T04:49:12;1.20;63.90
30999;DHT22;20549;50.042;8.968;2023-02-28T04:51:38;1.20;63.70
30999;DHT22;20549;50.042;8.968;2023-02-28T04:54:05;1.20;63.60
30999;DHT22;20549;50.042;8.968;2023-02-28T04:56:31;1.20;63.70
30999;DHT22;20549;50.042;8.968;2023-02-28T04:58:58;1.20;63.50
30999;DHT22;20549;50.042;8.968;2023-02-28T05:01:28;1.20;63.50
30999;DHT22;20549;50.042;8.968;2023-02-28T05:03:55;1.10;63.50
30999;DHT22;20549;50.042;8.968;2023-02-28T05:06:21;1.10;63.70
30999;DHT22;20549;50.042;8.968;2023-02-28T05:08:47;1.10;63.70
30999;DHT22;20549;50.042;8.968;2023-02-28T05:11:18;1.10;63.70
30999;DHT22;20549;50.042;8.968;2023-02-28T05:13:43;1.10;63.60
30999;DHT22;20549;50.042;8.968;2023-02-28T05:16:10;1.10;63.70
30999;DHT22;20549;50.042;8.968;2023-02-28T05:18:36;1.10;63.60
30999;DHT22;20549;50.042;8.968;2023-02-28T05:21:03;1.00;63.60
30999;DHT22;20549;50.042;8.968;2023-02-28T05:23:30;1.00;63.60
30999;DHT22;20549;50.042;8.968;2023-02-28T05:25:56;1.00;63.60
30999;DHT22;20549;50.042;8.968;2023-02-28T05:28:23;1.00;63.70
30999;DHT22;20549;50.042;8.968;2023-02-28T05:30:49;1.00;63.70
30999;DHT22;20549;50.042;8.968;2023-02-28T05:33:16;1.00;64.50
30999;DHT22;20549;50.042;8.968;2023-02-28T05:35:42;0.90;63.70
30999;DHT22;20549;50.042;8.968;2023-02-28T05:38:09;0.90;63.80
30999;DHT22;20549;50.042;8.968;2023-02-28T05:40:37;1.00;64.00
30999;DHT22;20549;50.042;8.968;2023-02-28T05:43:02;0.90;63.90
30999;DHT22;20549;50.042;8.968;2023-02-28T05:45:29;0.90;63.90
30999;DHT22;20549;50.042;8.968;2023-02-28T05:47:55;0.90;63.90
30999;DHT22;20549;50.042;8.968;2023-02-28T05:50:22;0.90;63.90
30999;DHT22;20549;50.042;8.968;2023-02-28T05:52:51;0.90;64.00
30999;DHT22;20549;50.042;8.968;2023-02-28T05:55:18;0.90;64.00
30999;DHT22;20549;50.042;8.968;2023-02-28T05:57:44;0.90;63.90
30999;DHT22;20549;50.042;8.968;2023-02-28T06:00:11;0.90;63.70
30999;DHT22;20549;50.042;8.968;2023-02-28T06:02:38;0.90;63.90
30999;DHT22;20549;50.042;8.968;2023-02-28T06:05:04;0.80;63.90
30999;DHT22;20549;50.042;8.968;2023-02-28T06:07:31;0.80;63.90
30999;DHT22;20549;50.042;8.968;2023-02-28T06:09:57;0.80;63.90
30999;DHT22;20549;50.042;8.968;2023-02-28T06:12:24;0.80;63.90
30999;DHT22;20549;50.042;8.968;2023-02-28T06:14:51;0.80;63.90
30999;DHT22;20549;50.042;8.968;2023-02-28T06:17:17;0.80;63.90
30999;DHT22;20549;50.042;8.968;2023-02-28T06:19:44;0.80;63.90
30999;DHT22;20549;50.042;8.968;2023-02-28T06:22:10;0.80;63.90
30999;DHT22;20549;50.042;8.968;2023-02-28T06:24:37;0.80;63.90
30999;DHT22;20549;50.042;8.968;2023-02-28T06:27:04;0.90;64.10
30999;DHT22;20549;50.042;8.968;2023-02-28T06:29:31;0.90;64.20
30999;DHT22;20549;50.042;8.968;2023-02-28T06:31:57;0.90;64.10
30999;DHT22;20549;50.042;8.968;2023-02-28T06:34:23;0.90;64.20
30999;DHT22;20549;50.042;8.968;2023-02-28T06:36:50;0.90;64.00
30999;DHT22;20549;50.042;8.968;2023-02-28T06:39:17;1.00;64.00
30999;DHT22;20549;50.042;8.968;2023-02-28T06:41:43;1.00;64.30
30999;DHT22;20549;50.042;8.968;2023-02-28T06:44:16;1.10;64.30
30999;DHT22;20549;50.042;8.968;2023-02-28T06:46:42;1.30;64.70
30999;DHT22;20549;50.042;8.968;2023-02-28T06:49:09;1.50;66.00
30999;DHT22;20549;50.042;8.968;2023-02-28T06:51:36;1.80;65.90
30999;DHT22;20549;50.042;8.968;2023-02-28T06:54:02;2.20;66.20
30999;DHT22;20549;50.042;8.968;2023-02-28T06:56:28;2.60;66.20
30999;DHT22;20549;50.042;8.968;2023-02-28T06:58:55;3.10;66.00
30999;DHT22;20549;50.042;8.968;2023-02-28T07:01:21;3.50;65.90
30999;DHT22;20549;50.042;8.968;2023-02-28T07:03:51;4.00;65.70
30999;DHT22;20549;50.042;8.968;2023-02-28T07:06:20;4.50;65.50
30999;DHT22;20549;50.042;8.968;2023-02-28T07:08:44;5.00;64.90
30999;DHT22;20549;50.042;8.968;2023-02-28T07:11:10;5.40;64.40
30999;DHT22;20549;50.042;8.968;2023-02-28T07:13:37;5.90;63.60
30999;DHT22;20549;50.042;8.968;2023-02-28T07:16:04;6.30;63.00
30999;DHT22;20549;50.042;8.968;2023-02-28T07:18:30;6.70;62.60
30999;DHT22;20549;50.042;8.968;2023-02-28T07:20:57;7.10;62.00
30999;DHT22;20549;50.042;8.968;2023-02-28T07:23:23;7.60;61.90
30999;DHT22;20549;50.042;8.968;2023-02-28T07:25:50;8.00;61.30
30999;DHT22;20549;50.042;8.968;2023-02-28T07:28:16;8.40;60.10
30999;DHT22;20549;50.042;8.968;2023-02-28T07:30:43;8.70;59.60
30999;DHT22;20549;50.042;8.968;2023-02-28T07:33:10;9.00;59.00
30999;DHT22;20549;50.042;8.968;2023-02-28T07:35:36;9.30;58.80
30999;DHT22;20549;50.042;8.968;2023-02-28T07:38:03;9.60;57.70
30999;DHT22;20549;50.042;8.968;2023-02-28T07:40:29;9.80;57.50
30999;DHT22;20549;50.042;8.968;2023-02-28T07:42:56;10.10;57.40
30999;DHT22;20549;50.042;8.968;2023-02-28T07:45:23;10.30;56.70
30999;DHT22;20549;50.042;8.968;2023-02-28T07:47:49;10.50;56.50
30999;DHT22;20549;50.042;8.968;2023-02-28T07:50:16;10.80;56.70
30999;DHT22;20549;50.042;8.968;2023-02-28T07:52:42;11.00;56.30
30999;DHT22;20549;50.042;8.968;2023-02-28T07:55:09;11.20;56.10
30999;DHT22;20549;50.042;8.968;2023-02-28T07:57:35;11.50;55.70
30999;DHT22;20549;50.042;8.968;2023-02-28T08:00:03;11.80;55.70
30999;DHT22;20549;50.042;8.968;2023-02-28T08:02:29;12.00;55.70
30999;DHT22;20549;50.042;8.968;2023-02-28T08:04:55;12.30;55.20
30999;DHT22;20549;50.042;8.968;2023-02-28T08:07:22;12.60;54.50
30999;DHT22;20549;50.042;8.968;2023-02-28T08:09:48;12.80;54.10
30999;DHT22;20549;50.042;8.968;2023-02-28T08:12:15;13.10;54.00
30999;DHT22;20549;50.042;8.968;2023-02-28T08:14:42;13.30;53.30
30999;DHT22;20549;50.042;8.968;2023-02-28T08:17:09;13.60;54.10
30999;DHT22;20549;50.042;8.968;2023-02-28T08:19:35;13.80;53.30
30999;DHT22;20549;50.042;8.968;2023-02-28T08:22:01;14.10;51.70
30999;DHT22;20549;50.042;8.968;2023-02-28T08:24:28;14.30;52.30
30999;DHT22;20549;50.042;8.968;2023-02-28T08:26:55;14.50;51.90
30999;DHT22;20549;50.042;8.968;2023-02-28T08:29:21;14.80;51.50
30999;DHT22;20549;50.042;8.968;2023-02-28T08:31:48;15.00;51.20
30999;DHT22;20549;50.042;8.968;2023-02-28T08:34:15;15.10;51.00
30999;DHT22;20549;50.042;8.968;2023-02-28T08:36:41;15.30;50.70
30999;DHT22;20549;50.042;8.968;2023-02-28T08:39:08;15.50;50.80
30999;DHT22;20549;50.042;8.968;2023-02-28T08:41:34;15.70;50.70
30999;DHT22;20549;50.042;8.968;2023-02-28T08:44:01;15.90;50.50
30999;DHT22;20549;50.042;8.968;2023-02-28T08:46:27;16.20;50.50
30999;DHT22;20549;50.042;8.968;2023-02-28T08:48:54;16.40;50.10
30999;DHT22;20549;50.042;8.968;2023-02-28T08:51:21;16.60;49.40
30999;DHT22;20549;50.042;8.968;2023-02-28T08:53:53;16.80;48.90
30999;DHT22;20549;50.042;8.968;2023-02-28T08:56:20;17.00;49.00
30999;DHT22;20549;50.042;8.968;2023-02-28T08:58:46;17.20;48.60
30999;DHT22;20549;50.042;8.968;2023-02-28T09:01:13;17.30;48.30
30999;DHT22;20549;50.042;8.968;2023-02-28T09:03:39;17.50;47.90
30999;DHT22;20549;50.042;8.968;2023-02-28T09:06:06;17.50;47.10
30999;DHT22;20549;50.042;8.968;2023-02-28T09:08:32;17.60;46.90
30999;DHT22;20549;50.042;8.968;2023-02-28T09:10:59;17.60;46.90
30999;DHT22;20549;50.042;8.968;2023-02-28T09:13:26;17.60;46.30
30999;DHT22;20549;50.042;8.968;2023-02-28T09:15:52;17.70;46.40
30999;DHT22;20549;50.042;8.968;2023-02-28T09:18:19;17.60;46.00
30999;DHT22;20549;50.042;8.968;2023-02-28T09:20:45;17.60;45.30
30999;DHT22;20549;50.042;8.968;2023-02-28T09:23:12;17.50;44.70
30999;DHT22;20549;50.042;8.968;2023-02-28T09:25:44;17.40;44.40
30999;DHT22;20549;50.042;8.968;2023-02-28T09:28:05;17.10;44.30
30999;DHT22;20549;50.042;8.968;2023-02-28T09:30:32;16.90;42.80
30999;DHT22;20549;50.042;8.968;2023-02-28T09:32:58;16.50;43.50
30999;DHT22;20549;50.042;8.968;2023-02-28T09:35:25;16.10;43.60
30999;DHT22;20549;50.042;8.968;2023-02-28T09:37:52;15.70;44.00
30999;DHT22;20549;50.042;8.968;2023-02-28T09:40:22;15.50;43.40
30999;DHT22;20549;50.042;8.968;2023-02-28T09:42:48;15.30;43.20
30999;DHT22;20549;50.042;8.968;2023-02-28T09:45:33;15.10;44.00
30999;DHT22;20549;50.042;8.968;2023-02-28T09:48:00;15.00;43.40
30999;DHT22;20549;50.042;8.968;2023-02-28T09:50:44;14.80;44.00
30999;DHT22;20549;50.042;8.968;2023-02-28T09:53:27;14.60;43.60
30999;DHT22;20549;50.042;8.968;2023-02-28T09:55:50;14.40;44.00
30999;DHT22;20549;50.042;8.968;2023-02-28T09:58:49;14.20;44.40
30999;DHT22;20549;50.042;8.968;2023-02-28T10:03:55;13.80;44.90
30999;DHT22;20549;50.042;8.968;2023-02-28T10:06:20;13.50;44.20
30999;DHT22;20549;50.042;8.968;2023-02-28T10:09:16;13.20;44.00
30999;DHT22;20549;50.042;8.968;2023-02-28T10:11:19;12.90;43.80
30999;DHT22;20549;50.042;8.968;2023-02-28T10:14:11;12.60;43.90
30999;DHT22;20549;50.042;8.968;2023-02-28T10:16:35;12.20;43.60
30999;DHT22;20549;50.042;8.968;2023-02-28T10:21:46;11.40;43.80
30999;DHT22;20549;50.042;8.968;2023-02-28T10:24:29;11.00;44.20
30999;DHT22;20549;50.042;8.968;2023-02-28T10:26:53;10.60;44.60
30999;DHT22;20549;50.042;8.968;2023-02-28T10:29:19;10.20;44.60
30999;DHT22;20549;50.042;8.968;2023-02-28T10:31:46;9.90;45.30
30999;DHT22;20549;50.042;8.968;2023-02-28T10:34:13;9.60;45.60
30999;DHT22;20549;50.042;8.968;2023-02-28T10:36:39;9.40;45.90
30999;DHT22;20549;50.042;8.968;2023-02-28T10:39:41;9.20;45.90
30999;DHT22;20549;50.042;8.968;2023-02-28T10:42:03;8.90;46.20
30999;DHT22;20549;50.042;8.968;2023-02-28T10:44:30;8.70;46.60
30999;DHT22;20549;50.042;8.968;2023-02-28T10:46:56;8.50;46.90
30999;DHT22;20549;50.042;8.968;2023-02-28T10:49:24;8.40;47.30
30999;DHT22;20549;50.042;8.968;2023-02-28T10:51:59;8.30;47.60
30999;DHT22;20549;50.042;8.968;2023-02-28T10:59:40;8.30;48.20
30999;DHT22;20549;50.042;8.968;2023-02-28T11:02:35;8.30;48.40
30999;DHT22;20549;50.042;8.968;2023-02-28T11:05:00;8.30;48.50
30999;DHT22;20549;50.042;8.968;2023-02-28T11:07:27;8.30;48.30
30999;DHT22;20549;50.042;8.968;2023-02-28T11:09:57;8.30;48.40
30999;DHT22;20549;50.042;8.968;2023-02-28T11:12:31;8.30;48.60
30999;DHT22;20549;50.042;8.968;2023-02-28T11:14:57;8.30;48.10
30999;DHT22;20549;50.042;8.968;2023-02-28T11:17:28;8.30;48.70
30999;DHT22;20549;50.042;8.968;2023-02-28T11:19:53;8.40;48.90
30999;DHT22;20549;50.042;8.968;2023-02-28T11:22:19;8.40;48.90
30999;DHT22;20549;50.042;8.968;2023-02-28T11:24:46;8.40;49.30
30999;DHT22;20549;50.042;8.968;2023-02-28T11:29:56;8.50;48.70
30999;DHT22;20549;50.042;8.968;2023-02-28T11:32:23;8.60;48.50
30999;DHT22;20549;50.042;8.968;2023-02-28T11:37:38;8.50;48.30
30999;DHT22;20549;50.042;8.968;2023-02-28T11:40:18;8.50;48.50
30999;DHT22;20549;50.042;8.968;2023-02-28T11:43:18;8.50;48.50
30999;DHT22;20549;50.042;8.968;2023-02-28T11:45:44;8.50;48.60
30999;DHT22;20549;50.042;8.968;2023-02-28T11:48:15;8.40;48.40
30999;DHT22;20549;50.042;8.968;2023-02-28T11:50:59;8.40;48.30
30999;DHT22;20549;50.042;8.968;2023-02-28T11:56:29;8.20;48.00
30999;DHT22;20549;50.042;8.968;2023-02-28T12:04:17;7.90;48.30
30999;DHT22;20549;50.042;8.968;2023-02-28T12:06:52;7.80;48.40
30999;DHT22;20549;50.042;8.968;2023-02-28T12:09:44;7.70;48.40
30999;DHT22;20549;50.042;8.968;2023-02-28T12:12:15;7.70;48.70
30999;DHT22;20549;50.042;8.968;2023-02-28T12:15:04;7.60;48.70
30999;DHT22;20549;50.042;8.968;2023-02-28T12:19:48;7.60;49.00
30999;DHT22;20549;50.042;8.968;2023-02-28T12:22:17;7.60;49.30
30999;DHT22;20549;50.042;8.968;2023-02-28T12:27:13;7.70;49.20
30999;DHT22;20549;50.042;8.968;2023-02-28T12:29:52;7.70;49.10
30999;DHT22;20549;50.042;8.968;2023-02-28T12:32:42;7.70;49.10
30999;DHT22;20549;50.042;8.968;2023-02-28T12:34:51;7.70;49.30
30999;DHT22;20549;50.042;8.968;2023-02-28T12:37:27;7.70;49.00
30999;DHT22;20549;50.042;8.968;2023-02-28T12:39:53;7.70;49.10
30999;DHT22;20549;50.042;8.968;2023-02-28T12:42:26;7.70;49.20
30999;DHT22;20549;50.042;8.968;2023-02-28T12:44:52;7.80;49.20
30999;DHT22;20549;50.042;8.968;2023-02-28T12:47:17;7.80;49.70
30999;DHT22;20549;50.042;8.968;2023-02-28T12:49:50;7.80;49.20
30999;DHT22;20549;50.042;8.968;2023-02-28T12:52:17;7.80;49.20
30999;DHT22;20549;50.042;8.968;2023-02-28T12:54:52;7.80;49.20
30999;DHT22;20549;50.042;8.968;2023-02-28T12:57:45;7.80;49.30
30999;DHT22;20549;50.042;8.968;2023-02-28T13:00:17;7.70;49.30
30999;DHT22;20549;50.042;8.968;2023-02-28T13:05:26;7.80;49.30
30999;DHT22;20549;50.042;8.968;2023-02-28T13:10:45;7.80;49.50
30999;DHT22;20549;50.042;8.968;2023-02-28T13:13:16;7.90;49.50
30999;DHT22;20549;50.042;8.968;2023-02-28T13:15:38;7.90;49.60
30999;DHT22;20549;50.042;8.968;2023-02-28T13:18:05;8.00;49.60
30999;DHT22;20549;50.042;8.968;2023-02-28T13:20:35;8.00;49.60
30999;DHT22;20549;50.042;8.968;2023-02-28T13:23:01;8.00;49.30
30999;DHT22;20549;50.042;8.968;2023-02-28T13:28:00;8.10;49.30
30999;DHT22;20549;50.042;8.968;2023-02-28T13:38:51;8.20;49.10
30999;DHT22;20549;50.042;8.968;2023-02-28T13:44:11;8.30;49.10
30999;DHT22;20549;50.042;8.968;2023-02-28T13:49:28;8.30;49.30
30999;DHT22;20549;50.042;8.968;2023-02-28T14:00:28;8.30;49.30
30999;DHT22;20549;50.042;8.968;2023-02-28T14:05:41;8.40;49.30
30999;DHT22;20549;50.042;8.968;2023-02-28T14:08:10;8.40;49.20
30999;DHT22;20549;50.042;8.968;2023-02-28T14:10:42;8.40;49.30
30999;DHT22;20549;50.042;8.968;2023-02-28T14:13:11;8.40;49.20
30999;DHT22;20549;50.042;8.968;2023-02-28T14:18:01;8.40;49.70
30999;DHT22;20549;50.042;8.968;2023-02-28T14:20:27;8.40;49.50
30999;DHT22;20549;50.042;8.968;2023-02-28T14:26:10;8.40;49.20
30999;DHT22;20549;50.042;8.968;2023-02-28T14:28:44;8.40;49.30
30999;DHT22;20549;50.042;8.968;2023-02-28T14:31:12;8.40;49.30
30999;DHT22;20549;50.042;8.968;2023-02-28T14:36:20;8.40;49.30
30999;DHT22;20549;50.042;8.968;2023-02-28T14:38:57;8.40;49.30
30999;DHT22;20549;50.042;8.968;2023-02-28T14:41:30;8.40;49.30
30999;DHT22;20549;50.042;8.968;2023-02-28T14:43:57;8.40;49.40
30999;DHT22;20549;50.042;8.968;2023-02-28T14:46:24;8.40;49.20
30999;DHT22;20549;50.042;8.968;2023-02-28T14:48:49;8.40;49.30
30999;DHT22;20549;50.042;8.968;2023-02-28T14:51:20;8.40;49.30
30999;DHT22;20549;50.042;8.968;2023-02-28T14:53:45;8.50;49.60
30999;DHT22;20549;50.042;8.968;2023-02-28T14:56:22;8.50;49.60
30999;DHT22;20549;50.042;8.968;2023-02-28T14:58:54;8.50;49.50
30999;DHT22;20549;50.042;8.968;2023-02-28T15:01:20;8.50;49.60
30999;DHT22;20549;50.042;8.968;2023-02-28T15:03:46;8.60;49.60
30999;DHT22;20549;50.042;8.968;2023-02-28T15:06:16;8.60;49.60
30999;DHT22;20549;50.042;8.968;2023-02-28T15:08:42;8.60;49.50
30999;DHT22;20549;50.042;8.968;2023-02-28T15:11:12;8.60;49.50
30999;DHT22;20549;50.042;8.968;2023-02-28T15:13:51;8.60;49.40
30999;DHT22;20549;50.042;8.968;2023-02-28T15:16:15;8.70;49.40
30999;DHT22;20549;50.042;8.968;2023-02-28T15:19:02;8.70;49.40
30999;DHT22;20549;50.042;8.968;2023-02-28T15:21:28;8.70;49.60
30999;DHT22;20549;50.042;8.968;2023-02-28T15:24:37;8.70;49.50
30999;DHT22;20549;50.042;8.968;2023-02-28T15:26:24;8.70;49.50
30999;DHT22;20549;50.042;8.968;2023-02-28T15:28:55;8.80;49.60
30999;DHT22;20549;50.042;8.968;2023-02-28T15:31:35;8.80;49.50
30999;DHT22;20549;50.042;8.968;2023-02-28T15:34:04;8.80;49.50
30999;DHT22;20549;50.042;8.968;2023-02-28T15:36:31;8.80;49.30
30999;DHT22;20549;50.042;8.968;2023-02-28T15:38:57;8.80;49.30
30999;DHT22;20549;50.042;8.968;2023-02-28T15:41:28;8.80;49.30
30999;DHT22;20549;50.042;8.968;2023-02-28T15:44:15;8.70;49.30
30999;DHT22;20549;50.042;8.968;2023-02-28T15:47:04;8.70;49.30
30999;DHT22;20549;50.042;8.968;2023-02-28T15:49:18;8.70;49.30
30999;DHT22;20549;50.042;8.968;2023-02-28T15:51:36;8.60;49.20
30999;DHT22;20549;50.042;8.968;2023-02-28T15:54:01;8.60;49.20
30999;DHT22;20549;50.042;8.968;2023-02-28T15:56:34;8.60;49.30
30999;DHT22;20549;50.042;8.968;2023-02-28T15:59:00;8.50;49.30
30999;DHT22;20549;50.042;8.968;2023-02-28T16:01:30;8.50;49.40
30999;DHT22;20549;50.042;8.968;2023-02-28T16:04:02;8.40;49.30
30999;DHT22;20549;50.042;8.968;2023-02-28T16:06:40;8.40;49.40
30999;DHT22;20549;50.042;8.968;2023-02-28T16:09:08;8.40;49.70
30999;DHT22;20549;50.042;8.968;2023-02-28T16:11:33;8.30;49.50
30999;DHT22;20549;50.042;8.968;2023-02-28T16:13:59;8.20;49.50
30999;DHT22;20549;50.042;8.968;2023-02-28T16:16:26;8.20;49.70
30999;DHT22;20549;50.042;8.968;2023-02-28T16:18:53;8.10;49.60
30999;DHT22;20549;50.042;8.968;2023-02-28T16:21:19;8.10;49.60
30999;DHT22;20549;50.042;8.968;2023-02-28T16:23:46;8.00;49.60
30999;DHT22;20549;50.042;8.968;2023-02-28T16:26:22;7.90;49.60
30999;DHT22;20549;50.042;8.968;2023-02-28T16:28:39;7.90;49.80
30999;DHT22;20549;50.042;8.968;2023-02-28T16:31:06;7.80;49.70
30999;DHT22;20549;50.042;8.968;2023-02-28T16:33:32;7.70;50.50
30999;DHT22;20549;50.042;8.968;2023-02-28T16:35:59;7.70;49.90
30999;DHT22;20549;50.042;8.968;2023-02-28T16:38:25;7.60;49.90
30999;DHT22;20549;50.042;8.968;2023-02-28T16:40:52;7.50;50.00
30999;DHT22;20549;50.042;8.968;2023-02-28T16:43:19;7.50;50.00
30999;DHT22;20549;50.042;8.968;2023-02-28T16:45:45;7.40;50.00
30999;DHT22;20549;50.042;8.968;2023-02-28T16:48:12;7.40;50.10
30999;DHT22;20549;50.042;8.968;2023-02-28T16:50:38;7.30;50.20
30999;DHT22;20549;50.042;8.968;2023-02-28T16:53:05;7.20;50.20
30999;DHT22;20549;50.042;8.968;2023-02-28T16:55:31;7.20;50.20
30999;DHT22;20549;50.042;8.968;2023-02-28T16:57:59;7.10;50.30
30999;DHT22;20549;50.042;8.968;2023-02-28T17:00:25;7.00;50.30
30999;DHT22;20549;50.042;8.968;2023-02-28T17:02:51;7.00;50.40
30999;DHT22;20549;50.042;8.968;2023-02-28T17:05:17;6.90;50.40
30999;DHT22;20549;50.042;8.968;2023-02-28T17:07:44;6.90;50.50
30999;DHT22;20549;50.042;8.968;2023-02-28T17:10:24;6.80;50.50
30999;DHT22;20549;50.042;8.968;2023-02-28T17:12:49;6.70;50.60
30999;DHT22;20549;50.042;8.968;2023-02-28T17:15:17;6.70;50.60
30999;DHT22;20549;50.042;8.968;2023-02-28T17:17:43;6.60;50.70
30999;DHT22;20549;50.042;8.968;2023-02-28T17:20:13;6.50;50.70
30999;DHT22;20549;50.042;8.968;2023-02-28T17:22:39;6.40;50.80
30999;DHT22;20549;50.042;8.968;2023-02-28T17:25:05;6.30;50.80
30999;DHT22;20549;50.042;8.968;2023-02-28T17:27:32;6.20;50.90
30999;DHT22;20549;50.042;8.968;2023-02-28T17:29:58;6.20;51.10